Houghton, MI

2:39 AM EDT on October 23, 2014 (GMT -0400)
Hancock: Sylvan Estates | Change Station
CLOSE
Current Station
Personal Weather Station
Location: Hancock, MI
Elevation: 917 ft
Nearby Weather Stations

Elev 917 ft 47.14 °N, 88.60 °W | Updated 9 minutes ago

Overcast
Overcast
44.5 °F
Feels Like 44 °F
N
1.0
Wind Variable Wind from SSE
Gusts 4.0 mph

Today
High -- | Low -- °F
--% Chance of Precip.
Yesterday
High -- | Low -- °F
Precip. -- in
8:23 AM 6:52 PM
Waning Crescent, 0% visible
Pressure 30.13 in
Visibility 10.0 miles
Clouds Mostly Cloudy 6000 ft
Overcast 8000 ft
Windchill 44 °F
Dew Point 38 °F
Humidity 77%
Rainfall 0.00 in
Snow Depth Not available.
UV 0 out of 12
Pollen 1.40 out of 12
Air Quality Not available.
Flu Activity Sporadic
METAR KCMX 230553Z AUTO 17008G17KT 10SM BKN060 OVC080 06/01 A3011 RMK AO2 SLP203 T00610006 10078 20044 55009

More Conditions Fewer Conditions

Pressure 30.13 in
Visibility 10.0 miles
Clouds Mostly Cloudy 6000 ft
Overcast 8000 ft
Windchill 44 °F
Dew Point 38 °F
Humidity 77%
Rainfall 0.00 in
Snow Depth Not available.
UV 0 out of 12
Pollen 1.40 out of 12
Air Quality Not available.
Flu Activity Sporadic
METAR KCMX 230553Z AUTO 17008G17KT 10SM BKN060 OVC080 06/01 A3011 RMK AO2 SLP203 T00610006 10078 20044 55009

More Conditions Fewer Conditions

10-Day Weather Forecast

Almanac

Astronomy

Oct. 23, 2014 Rise Set
Actual Time 8:23 AM EDT 6:52 PM EDT
Civil Twilight 7:52 AM EDT 7:23 PM EDT
Nautical Twilight 7:17 AM EDT 7:59 PM EDT
Astronomical Twilight 6:41 AM EDT 8:34 PM EDT
Moon 8:02 AM EDT 6:53 PM EDT
Length of Visible Light 11h 30m
Length of Day
10h 28m
Tomorrow will be 3m 10s shorter.
Waning Crescent, 0% of the Moon is Illuminated
Today
Waning Crescent
Oct 23
New
Oct 30
First Quarter
Nov 6
Full
Nov 14
Last Quarter

Today's Extremes

State Highs State Lows

Community

WunderPhotos

Upload Photos

1,764,194 photos uploaded!

Nearby

Snow Depth

Station Depth Elevation
No new snow has been reported.

Earthquake Activity

City Distance Mag. Time & Date
No recent earthquake activity has been reported nearby.
Minimum magnitude displayed is 2.5.

Coastal Water Temperatures

Place Temperature
No Stations Reporting

Nearby Weather Stations